Time;durP1;ratioP1;P1;durP2;ratioP2;P2;SDS_P1;SDS_P2;PMS_P1;PMS_P2;Temp;Humidity;BMP_temperature;BMP_pressure;BME280_temperature;BME280_humidity;BME280_pressure;Samples;Min_cycle;Max_cycle;Signal;HPM_P1;HPM_P2
2021/06/05 00:01:54;;;;;;;3.30;3.00;;;;;;;12.59;100.00;98809.81;4993241;28;20643;-84
2021/06/05 00:04:23;;;;;;;3.60;3.30;;;;;;;12.42;100.00;98786.41;4992710;28;20180;-84
2021/06/05 00:06:51;;;;;;;5.30;3.20;;;;;;;12.50;100.00;98791.16;4992850;28;20196;-84
2021/06/05 00:09:20;;;;;;;5.57;3.07;;;;;;;12.27;100.00;98771.69;4992313;28;20236;-84
2021/06/05 00:11:47;;;;;;;2.90;2.70;;;;;;;12.37;100.00;98778.00;4992679;28;20212;-84
2021/06/05 00:14:15;;;;;;;3.90;3.60;;;;;;;12.12;100.00;98753.38;4992523;28;20228;-84
2021/06/05 00:16:45;;;;;;;3.40;3.10;;;;;;;12.24;100.00;98764.00;4992768;28;20286;-84
2021/06/05 00:19:13;;;;;;;3.00;2.80;;;;;;;12.34;100.00;98757.97;4992850;28;20637;-84
2021/06/05 00:21:41;;;;;;;6.33;3.77;;;;;;;12.19;100.00;98722.13;4992950;28;20196;-84
2021/06/05 00:24:08;;;;;;;4.90;3.20;;;;;;;12.21;100.00;98724.66;4992563;28;20199;-84
2021/06/05 00:26:36;;;;;;;2.70;2.50;;;;;;;11.97;100.00;98698.25;4992380;28;20200;-84
2021/06/05 00:29:03;;;;;;;6.53;3.40;;;;;;;12.09;100.00;98706.13;4992734;28;20197;-84
2021/06/05 00:31:32;;;;;;;5.93;3.33;;;;;;;12.24;100.00;98719.16;4992572;28;20210;-84
2021/06/05 00:33:59;;;;;;;3.73;3.47;;;;;;;12.25;100.00;98702.41;4992150;28;20718;-84
2021/06/05 00:36:27;;;;;;;4.77;3.97;;;;;;;12.21;100.00;98696.50;4992695;28;20204;-83
2021/06/05 00:38:54;;;;;;;8.13;3.70;;;;;;;12.38;100.00;98716.38;4992284;28;20200;-84
2021/06/05 00:41:23;;;;;;;3.40;3.10;;;;;;;12.28;100.00;98704.81;4992193;28;20204;-84
2021/06/05 00:43:52;;;;;;;3.17;2.97;;;;;;;12.21;100.00;98720.22;4992325;28;20192;-84
2021/06/05 00:46:21;;;;;;;3.93;3.30;;;;;;;12.27;100.00;98719.78;4992564;28;20676;-84
2021/06/05 00:48:50;;;;;;;8.20;4.03;;;;;;;12.29;100.00;98719.66;4992212;28;20204;-84
2021/06/05 00:51:23;;;;;;;6.97;3.90;;;;;;;12.20;100.00;98723.00;4992342;28;20202;-84
2021/06/05 00:53:51;;;;;;;5.10;4.13;;;;;;;12.28;100.00;98747.84;4992177;28;20208;-84
2021/06/05 00:56:19;;;;;;;5.20;4.80;;;;;;;12.36;100.00;98771.91;4992143;28;20207;-84
2021/06/05 00:58:49;;;;;;;4.73;4.40;;;;;;;12.59;100.00;98801.91;4992267;28;20559;-85
2021/06/05 01:01:22;;;;;;;4.57;4.17;;;;;;;12.58;100.00;98808.13;4992302;28;20211;-85
2021/06/05 01:03:52;;;;;;;5.40;4.80;;;;;;;12.58;100.00;98831.03;4996107;28;20198;-85
2021/06/05 01:06:25;;;;;;;4.40;4.10;;;;;;;12.57;100.00;98842.53;4996177;28;20342;-85
2021/06/05 01:09:00;;;;;;;4.67;4.27;;;;;;;12.62;100.00;98861.53;4995948;28;20198;-85
2021/06/05 01:11:34;;;;;;;4.67;4.27;;;;;;;12.68;100.00;98890.13;4996035;28;20202;-85
2021/06/05 01:14:09;;;;;;;5.27;4.27;;;;;;;12.65;100.00;98895.63;4995598;28;20218;-85
2021/06/05 01:16:41;;;;;;;4.13;3.83;;;;;;;12.71;100.00;98916.31;4995961;28;20188;-85
2021/06/05 01:19:43;;;;;;;4.53;4.20;;;;;;;12.73;100.00;98932.00;4996327;28;20664;-85
2021/06/05 01:22:32;;;;;;;5.33;4.83;;;;;;;12.54;100.00;98921.91;4993583;28;20203;-85
2021/06/05 01:25:54;;;;;;;3.90;3.57;;;;;;;12.19;100.00;98897.94;4995684;28;20239;-84
2021/06/05 01:28:26;;;;;;;3.37;3.10;;;;;;;12.16;100.00;98917.44;4935709;29;20191;-84
2021/06/05 01:30:55;;;;;;;5.20;3.90;;;;;;;12.11;100.00;98930.94;4935419;29;20191;-84
2021/06/05 01:33:27;;;;;;;4.23;3.93;;;;;;;12.10;100.00;98934.53;4972491;28;20242;-83
2021/06/05 01:35:54;;;;;;;4.77;3.83;;;;;;;11.97;100.00;98932.81;4995597;28;20243;-84
2021/06/05 01:38:24;;;;;;;4.20;3.83;;;;;;;11.98;100.00;98926.56;4995457;28;20199;-84
2021/06/05 01:40:55;;;;;;;4.90;3.80;;;;;;;11.92;100.00;98927.84;4995363;28;20215;-84
2021/06/05 01:43:25;;;;;;;4.43;4.13;;;;;;;11.88;100.00;98937.75;4995505;28;20184;-84
2021/06/05 01:45:52;;;;;;;5.53;4.00;;;;;;;12.00;100.00;98938.72;4995431;28;20204;-84
2021/06/05 01:48:21;;;;;;;4.23;3.83;;;;;;;11.93;100.00;98926.06;4995021;28;20207;-84
2021/06/05 01:50:48;;;;;;;3.83;3.53;;;;;;;11.96;100.00;98923.22;4995190;28;20200;-84
2021/06/05 01:53:20;;;;;;;3.57;3.27;;;;;;;12.05;100.00;98930.50;4995095;28;20209;-84
2021/06/05 01:55:54;;;;;;;4.80;4.13;;;;;;;11.88;100.00;98918.44;4995398;28;20218;-84
2021/06/05 01:58:24;;;;;;;4.00;3.70;;;;;;;11.91;100.00;98910.31;4995047;28;20192;-84
2021/06/05 02:00:53;;;;;;;4.40;4.00;;;;;;;11.89;100.00;98909.59;4995072;28;20199;-84
2021/06/05 02:03:21;;;;;;;4.00;3.47;;;;;;;11.94;100.00;98896.94;4995263;28;20201;-84
2021/06/05 02:05:49;;;;;;;5.57;4.37;;;;;;;11.78;100.00;98870.75;4995021;28;20207;-84
2021/06/05 02:08:21;;;;;;;4.63;3.93;;;;;;;11.97;100.00;98886.19;4994849;28;20195;-84
2021/06/05 02:10:48;;;;;;;4.50;4.10;;;;;;;12.13;100.00;98913.22;4994997;28;20227;-84
2021/06/05 02:13:22;;;;;;;4.93;4.53;;;;;;;12.18;100.00;98912.06;4993787;28;20204;-84
2021/06/05 02:15:53;;;;;;;4.80;4.17;;;;;;;12.02;100.00;98870.94;4994652;28;20668;-84
2021/06/05 02:18:25;;;;;;;4.23;3.27;;;;;;;11.96;100.00;98896.84;4994726;28;20196;-84
2021/06/05 02:20:55;;;;;;;4.50;3.57;;;;;;;11.94;100.00;98889.03;4995206;28;20191;-84
2021/06/05 02:23:27;;;;;;;3.47;3.17;;;;;;;11.80;100.00;98889.94;4994907;28;20188;-83
2021/06/05 02:25:55;;;;;;;4.97;3.97;;;;;;;11.87;100.00;98898.31;4994476;28;20250;-84
2021/06/05 02:28:25;;;;;;;4.83;4.37;;;;;;;11.78;100.00;98883.94;4994594;28;20588;-84
2021/06/05 02:30:52;;;;;;;4.10;3.70;;;;;;;11.78;100.00;98880.47;4994928;28;20211;-85
2021/06/05 02:33:19;;;;;;;4.87;4.47;;;;;;;11.65;100.00;98854.91;4993998;28;20236;-84
2021/06/05 02:35:48;;;;;;;4.43;3.93;;;;;;;11.57;100.00;98848.44;4994356;28;20202;-84
2021/06/05 02:38:16;;;;;;;4.47;4.07;;;;;;;11.77;100.00;98866.41;4994600;28;20249;-84
2021/06/05 02:40:48;;;;;;;4.30;3.90;;;;;;;11.70;100.00;98840.59;4994388;28;20216;-84
2021/06/05 02:43:17;;;;;;;5.63;3.70;;;;;;;11.63;100.00;98843.63;4993943;28;20209;-84
2021/06/05 02:45:52;;;;;;;5.10;3.70;;;;;;;11.61;100.00;98832.38;4994207;28;20247;-84
2021/06/05 02:48:19;;;;;;;4.97;4.20;;;;;;;11.58;100.00;98821.19;4994087;28;20191;-84
2021/06/05 02:50:49;;;;;;;4.77;4.00;;;;;;;11.81;100.00;98830.16;4994134;28;20200;-84
2021/06/05 02:53:16;;;;;;;4.07;3.77;;;;;;;11.74;100.00;98819.22;4993785;28;20196;-83
2021/06/05 02:55:44;;;;;;;5.57;3.73;;;;;;;11.79;100.00;98834.72;4994282;28;20192;-83
2021/06/05 02:58:13;;;;;;;4.83;4.40;;;;;;;11.82;100.00;98839.78;4994369;28;20208;-83
2021/06/05 03:00:43;;;;;;;4.60;4.20;;;;;;;11.76;100.00;98832.28;4994175;28;20258;-84
2021/06/05 03:03:15;;;;;;;4.40;3.43;;;;;;;11.66;100.00;98826.78;4993985;28;20203;-83
2021/06/05 03:05:42;;;;;;;4.30;3.90;;;;;;;11.61;100.00;98834.16;4993917;28;20195;-84
2021/06/05 03:08:11;;;;;;;3.47;3.10;;;;;;;11.54;100.00;98832.88;4993641;28;20209;-84
2021/06/05 03:10:38;;;;;;;4.80;4.30;;;;;;;11.60;100.00;98829.81;4993643;28;20204;-84
2021/06/05 03:13:07;;;;;;;5.33;4.83;;;;;;;11.62;100.00;98826.16;4993759;28;20250;-83
2021/06/05 03:15:47;;;;;;;4.83;3.87;;;;;;;11.71;100.00;98816.78;4993622;28;20330;-84
2021/06/05 03:18:17;;;;;;;8.80;5.37;;;;;;;11.80;100.00;98833.75;4993669;28;20207;-84
2021/06/05 03:20:48;;;;;;;11.60;8.40;;;;;;;11.87;100.00;98854.34;4993593;28;20213;-84
2021/06/05 03:23:18;;;;;;;8.13;7.33;;;;;;;11.85;100.00;98874.72;4993137;28;20283;-84
2021/06/05 03:25:46;;;;;;;5.40;4.90;;;;;;;11.94;100.00;98882.94;4993274;28;20239;-84
2021/06/05 03:28:14;;;;;;;5.70;4.97;;;;;;;11.99;100.00;98904.56;4993283;28;20669;-84
2021/06/05 03:30:42;;;;;;;8.67;7.63;;;;;;;11.97;100.00;98915.19;4993287;28;20192;-85
2021/06/05 03:33:09;;;;;;;5.67;5.17;;;;;;;12.12;100.00;98937.91;4992917;28;20247;-84
2021/06/05 03:35:38;;;;;;;6.80;6.17;;;;;;;12.13;100.00;98939.59;4993615;28;20283;-84
2021/06/05 03:38:24;;;;;;;8.53;7.73;;;;;;;12.21;100.00;98930.31;4993180;28;20221;-84
2021/06/05 03:40:53;;;;;;;5.13;4.63;;;;;;;12.22;100.00;98969.75;4992890;28;20657;-84
2021/06/05 03:43:19;;;;;;;5.33;4.93;;;;;;;12.22;100.00;98975.03;4993165;28;20199;-83
2021/06/05 03:45:46;;;;;;;6.37;5.77;;;;;;;12.27;100.00;98980.84;4993263;28;20200;-84
2021/06/05 03:51:11;;;;;;;4.67;4.27;;;;;;;12.35;100.00;99001.44;4993238;28;20238;-84
2021/06/05 03:53:38;;;;;;;5.73;5.23;;;;;;;12.33;100.00;99005.94;4992233;28;20286;-84
2021/06/05 03:56:08;;;;;;;4.67;4.00;;;;;;;12.42;100.00;99013.25;4992929;28;20211;-84
2021/06/05 03:58:45;;;;;;;3.63;3.33;;;;;;;12.45;100.00;99009.56;4992746;28;20286;-84
2021/06/05 04:01:14;;;;;;;5.97;3.50;;;;;;;12.50;100.00;99000.38;4992929;28;20222;-84
2021/06/05 04:03:42;;;;;;;3.93;2.90;;;;;;;12.49;100.00;98990.78;4992856;28;20246;-84
2021/06/05 04:06:11;;;;;;;3.70;3.40;;;;;;;12.61;100.00;98992.59;4993140;28;20204;-84
2021/06/05 04:08:38;;;;;;;4.30;3.03;;;;;;;12.59;100.00;98972.53;4992584;28;20207;-84
2021/06/05 04:11:05;;;;;;;4.00;3.47;;;;;;;12.60;100.00;98985.63;4992556;28;20211;-84
2021/06/05 04:13:33;;;;;;;3.67;3.00;;;;;;;12.47;100.00;99010.28;4992560;28;20204;-85
2021/06/05 04:16:00;;;;;;;3.77;3.47;;;;;;;12.45;100.00;99049.97;4992495;28;20246;-86
2021/06/05 04:18:30;;;;;;;4.20;3.20;;;;;;;12.52;100.00;99068.88;4992950;28;20188;-85
2021/06/05 04:20:57;;;;;;;3.83;3.53;;;;;;;12.49;100.00;99062.00;4993164;28;20196;-85
2021/06/05 04:23:32;;;;;;;3.50;3.20;;;;;;;12.51;100.00;99086.50;4992951;28;20230;-85
2021/06/05 04:25:59;;;;;;;3.57;3.30;;;;;;;12.54;100.00;99119.75;4993070;28;20200;-85
2021/06/05 04:28:29;;;;;;;4.07;3.37;;;;;;;12.59;100.00;99136.97;4991984;28;20255;-85
2021/06/05 04:30:56;;;;;;;3.70;3.40;;;;;;;12.55;100.00;99140.75;4992346;28;20193;-85
2021/06/05 04:33:25;;;;;;;6.67;3.00;;;;;;;12.63;100.00;99123.56;4992369;28;20645;-85
2021/06/05 04:35:53;;;;;;;7.70;3.50;;;;;;;12.67;100.00;99122.41;4992876;28;20307;-84
2021/06/05 04:38:21;;;;;;;5.20;3.90;;;;;;;12.77;100.00;99118.22;4995905;28;20207;-84
2021/06/05 04:40:50;;;;;;;4.13;3.83;;;;;;;12.82;100.00;99102.94;4996759;28;20219;-84
2021/06/05 04:43:18;;;;;;;5.57;4.13;;;;;;;12.88;100.00;99104.28;4996558;28;20203;-85
2021/06/05 04:45:46;;;;;;;3.70;3.40;;;;;;;12.86;100.00;99093.84;4996577;28;20199;-84
2021/06/05 04:48:15;;;;;;;4.67;4.27;;;;;;;13.01;100.00;99100.72;4996444;28;20587;-84
2021/06/05 04:50:43;;;;;;;5.13;4.07;;;;;;;13.06;100.00;99081.94;4996916;28;20307;-84
2021/06/05 04:53:10;;;;;;;3.87;3.57;;;;;;;13.11;100.00;99074.53;5000700;28;20199;-84
2021/06/05 04:55:38;;;;;;;3.87;2.90;;;;;;;13.18;100.00;99077.59;5003272;28;20211;-86
2021/06/05 04:58:07;;;;;;;3.47;3.20;;;;;;;13.34;100.00;99067.69;5002979;28;20208;-85
2021/06/05 05:00:36;;;;;;;4.00;3.57;;;;;;;13.28;100.00;99054.91;5006781;28;20278;-85
2021/06/05 05:03:04;;;;;;;3.87;3.57;;;;;;;13.43;100.00;99069.69;5006902;28;20202;-84
2021/06/05 05:05:31;;;;;;;10.60;4.97;;;;;;;13.49;100.00;99040.19;5016168;28;20277;-84
2021/06/05 05:07:59;;;;;;;6.73;5.70;;;;;;;13.71;100.00;99043.94;5016262;28;20668;-85
2021/06/05 05:10:29;;;;;;;5.43;4.93;;;;;;;13.83;100.00;99024.56;5013040;28;20196;-86
2021/06/05 05:12:56;;;;;;;3.00;2.80;;;;;;;13.85;100.00;98996.19;5012705;28;20258;-86
2021/06/05 05:15:25;;;;;;;7.10;4.70;;;;;;;13.93;100.00;98983.25;4999403;28;20228;-85
2021/06/05 05:17:52;;;;;;;4.43;3.60;;;;;;;14.00;100.00;98958.06;4996160;28;20211;-86
2021/06/05 05:20:22;;;;;;;6.83;5.63;;;;;;;14.13;100.00;98918.31;4995970;28;20220;-86
2021/06/05 05:22:49;;;;;;;4.27;3.87;;;;;;;14.31;100.00;98847.28;4995941;28;20189;-85
2021/06/05 05:25:17;;;;;;;3.93;3.63;;;;;;;14.45;100.00;98788.00;4995883;28;20200;-86
2021/06/05 05:27:44;;;;;;;4.97;4.13;;;;;;;14.65;100.00;98767.91;4995883;28;20207;-86
2021/06/05 05:30:15;;;;;;;4.10;3.50;;;;;;;14.80;100.00;98732.25;4995922;28;20725;-86
2021/06/05 05:32:44;;;;;;;3.87;3.47;;;;;;;14.98;100.00;98680.44;4995793;28;20283;-86
2021/06/05 05:35:12;;;;;;;3.83;3.53;;;;;;;15.17;100.00;98657.69;4995460;28;20742;-86
2021/06/05 05:37:39;;;;;;;6.17;3.97;;;;;;;15.41;100.00;98631.78;4995670;28;20229;-86
2021/06/05 05:40:07;;;;;;;4.10;3.70;;;;;;;15.56;100.00;98578.44;4995902;28;20258;-86
2021/06/05 05:42:34;;;;;;;5.13;3.60;;;;;;;15.77;100.00;98573.09;5015647;28;20542;-86
2021/06/05 05:45:01;;;;;;;3.60;3.30;;;;;;;15.84;100.00;98535.28;5015027;28;20296;-86
2021/06/05 05:47:28;;;;;;;6.03;3.17;;;;;;;16.01;100.00;98486.06;5015430;28;20208;-86
2021/06/05 05:49:56;;;;;;;2.87;2.67;;;;;;;16.23;100.00;98447.78;5015582;28;20209;-87
2021/06/05 05:52:23;;;;;;;20.17;12.33;;;;;;;16.34;100.00;98452.94;5015358;28;20221;-87
2021/06/05 05:54:50;;;;;;;8.77;4.27;;;;;;;16.48;100.00;98426.94;5015467;28;20596;-87
2021/06/05 05:57:17;;;;;;;3.40;3.10;;;;;;;16.55;100.00;98364.31;5015232;28;20752;-87
2021/06/05 05:59:44;;;;;;;2.97;2.70;;;;;;;16.62;100.00;98313.16;5015236;28;20257;-86
2021/06/05 06:02:11;;;;;;;5.30;3.00;;;;;;;16.79;100.00;98308.91;5015664;28;20294;-87
2021/06/05 06:04:37;;;;;;;4.03;3.27;;;;;;;17.03;100.00;98281.78;5014926;28;20199;-86
2021/06/05 06:07:06;;;;;;;4.30;3.90;;;;;;;17.13;100.00;98239.22;5015151;28;20653;-87
2021/06/05 06:09:33;;;;;;;6.40;3.73;;;;;;;17.29;100.00;98215.44;5015130;28;20211;-87
2021/06/05 06:12:00;;;;;;;3.60;2.90;;;;;;;17.45;100.00;98177.53;5015598;28;20626;-87
2021/06/05 06:14:27;;;;;;;3.20;3.00;;;;;;;17.72;100.00;98139.31;5014768;28;20227;-87
2021/06/05 06:16:55;;;;;;;5.07;2.93;;;;;;;17.86;100.00;98074.06;5014790;28;20203;-87
2021/06/05 06:19:22;;;;;;;14.67;10.03;;;;;;;18.01;100.00;98059.19;5015147;28;20202;-86
2021/06/05 06:21:49;;;;;;;4.17;3.03;;;;;;;18.13;100.00;98017.13;5014926;28;20192;-87
2021/06/05 06:24:17;;;;;;;4.13;3.10;;;;;;;18.35;100.00;97974.91;5014879;28;20209;-87
2021/06/05 06:26:44;;;;;;;4.10;3.43;;;;;;;18.50;100.00;97949.28;5014963;28;20573;-87
2021/06/05 06:29:15;;;;;;;3.47;3.17;;;;;;;18.57;100.00;97913.00;5014803;28;20256;-87
2021/06/05 06:31:44;;;;;;;2.83;2.63;;;;;;;18.61;100.00;97887.69;5015067;28;20192;-87
2021/06/05 06:34:11;;;;;;;4.97;2.47;;;;;;;18.82;100.00;97915.63;5014223;28;20231;-86
2021/06/05 06:36:40;;;;;;;3.10;2.60;;;;;;;18.73;100.00;97870.38;5014554;28;20200;-87
2021/06/05 06:39:07;;;;;;;2.80;2.60;;;;;;;19.00;100.00;97854.97;5015041;28;20208;-90
2021/06/05 06:41:35;;;;;;;3.17;2.67;;;;;;;19.13;100.00;97836.59;5015053;28;20200;-90
2021/06/05 06:44:04;;;;;;;3.23;2.80;;;;;;;19.22;100.00;97778.72;5015197;28;20204;-89
2021/06/05 06:46:35;;;;;;;4.30;3.83;;;;;;;19.54;100.00;97745.69;5015165;28;20676;-88
2021/06/05 06:49:02;;;;;;;11.83;10.23;;;;;;;19.57;100.00;97723.13;5014322;28;20199;-88
2021/06/05 06:51:34;;;;;;;16.93;10.20;;;;;;;19.79;100.00;97684.16;5004534;28;20644;-88
2021/06/05 06:54:01;;;;;;;2.80;2.60;;;;;;;19.68;100.00;97586.72;5005334;28;20239;-87
2021/06/05 06:56:28;;;;;;;5.77;3.07;;;;;;;19.77;100.00;97616.78;4994263;28;20203;-87
2021/06/05 06:58:59;;;;;;;3.63;2.90;;;;;;;19.66;100.00;97504.22;4994343;28;20318;-85
2021/06/05 07:01:28;;;;;;;8.07;5.20;;;;;;;19.91;100.00;97435.34;4993797;28;20206;-85
2021/06/05 07:03:55;;;;;;;2.37;2.17;;;;;;;20.21;100.00;97474.47;4993726;28;20258;-86
2021/06/05 07:06:25;;;;;;;2.23;2.13;;;;;;;20.27;100.00;97377.63;4993387;28;20235;-86
2021/06/05 07:08:53;;;;;;;4.67;2.50;;;;;;;20.30;100.00;97307.81;4993884;28;20569;-85
2021/06/05 07:11:23;;;;;;;2.37;2.20;;;;;;;20.66;100.00;97335.19;4993676;28;20211;-89
2021/06/05 07:13:50;;;;;;;2.87;2.67;;;;;;;20.46;100.00;97309.34;4993307;28;20463;-86
2021/06/05 07:16:29;;;;;;;7.10;6.17;;;;;;;20.51;100.00;97286.41;4993802;28;20207;-86
2021/06/05 07:18:56;;;;;;;3.83;3.50;;;;;;;20.89;100.00;97316.22;4993980;28;20203;-87
2021/06/05 07:21:26;;;;;;;3.23;2.40;;;;;;;20.92;100.00;97154.66;4993895;28;20216;-86
2021/06/05 07:23:56;;;;;;;2.60;2.40;;;;;;;21.17;100.00;97223.59;4994044;28;20657;-86
2021/06/05 07:26:30;;;;;;;6.07;3.00;;;;;;;21.22;100.00;97274.59;4993724;28;20235;-86
2021/06/05 07:29:01;;;;;;;4.07;2.50;;;;;;;21.54;100.00;97273.88;4993224;28;20244;-86
2021/06/05 07:31:34;;;;;;;2.60;2.40;;;;;;;21.84;100.00;97215.44;4993423;28;20187;-86
2021/06/05 07:34:01;;;;;;;3.20;2.30;;;;;;;21.69;100.00;97115.03;4992485;28;20243;-85
2021/06/05 07:36:31;;;;;;;4.07;2.57;;;;;;;21.99;100.00;97110.00;4993616;28;20208;-86
2021/06/05 07:38:58;;;;;;;3.23;2.57;;;;;;;22.07;100.00;97027.63;4993275;28;20656;-88
2021/06/05 07:41:25;;;;;;;2.80;2.37;;;;;;;22.24;100.00;97003.06;4993739;28;20211;-86
2021/06/05 07:43:58;;;;;;;6.90;2.17;;;;;;;22.26;100.00;96924.16;4992789;28;20192;-87
2021/06/05 07:46:30;;;;;;;2.90;2.20;;;;;;;22.03;100.00;96619.56;4993039;28;20193;-86
2021/06/05 07:48:57;;;;;;;6.63;2.50;;;;;;;22.07;100.00;96575.25;4993431;28;20200;-89
2021/06/05 07:51:24;;;;;;;4.43;3.80;;;;;;;22.21;100.00;96481.44;4993500;28;20200;-91
2021/06/05 07:53:51;;;;;;;3.97;2.60;;;;;;;22.25;100.00;96445.13;4994192;28;20211;-92
2021/06/05 07:56:19;;;;;;;2.50;1.97;;;;;;;22.02;100.00;96189.69;4994287;28;20258;-89
2021/06/05 07:58:46;;;;;;;2.73;2.33;;;;;;;21.83;100.00;96089.19;4993743;28;20204;-91
2021/06/05 08:01:13;;;;;;;1.90;1.80;;;;;;;21.99;100.00;96053.69;4993491;28;20214;-90
2021/06/05 08:03:44;;;;;;;2.40;2.20;;;;;;;21.95;100.00;96090.00;4993649;28;20246;-91
2021/06/05 08:06:11;;;;;;;2.67;1.77;;;;;;;22.29;100.00;96008.00;4994443;28;20215;-90
2021/06/05 08:08:38;;;;;;;3.73;2.27;;;;;;;22.45;100.00;96046.63;4994003;28;20210;-90
2021/06/05 08:11:05;;;;;;;3.40;2.60;;;;;;;22.63;100.00;96098.38;4993294;28;20211;-89
2021/06/05 08:13:32;;;;;;;2.10;1.87;;;;;;;22.56;100.00;96103.88;4993867;28;20224;-90
2021/06/05 08:15:59;;;;;;;2.63;1.90;;;;;;;22.81;100.00;96132.19;4993386;28;20227;-89
2021/06/05 08:18:27;;;;;;;2.73;1.83;;;;;;;23.03;100.00;96154.59;4993310;28;20207;-90
2021/06/05 08:20:58;;;;;;;1.80;1.70;;;;;;;23.44;100.00;96243.84;4993361;28;20200;-89
2021/06/05 08:23:30;;;;;;;2.30;2.10;;;;;;;23.67;100.00;96251.81;4993868;28;20278;-88
2021/06/05 08:25:57;;;;;;;1.93;1.83;;;;;;;23.55;100.00;96177.78;4993318;28;20275;-90
2021/06/05 08:28:25;;;;;;;4.57;1.83;;;;;;;23.47;100.00;96139.56;4993139;28;20661;-87
2021/06/05 08:30:58;;;;;;;2.60;2.00;;;;;;;23.69;100.00;96110.19;4993346;28;20205;-88
2021/06/05 08:33:28;;;;;;;3.27;1.80;;;;;;;23.75;100.00;96052.03;4993222;28;20251;-87
2021/06/05 08:35:56;;;;;;;2.37;2.10;;;;;;;23.56;100.00;96023.84;4992953;28;20645;-87
2021/06/05 08:38:26;;;;;;;4.27;1.73;;;;;;;23.52;100.00;95993.16;4993042;28;20202;-88
2021/06/05 08:41:00;;;;;;;2.80;1.97;;;;;;;23.82;100.00;95992.81;4993025;28;20200;-87
2021/06/05 08:43:31;;;;;;;5.37;2.63;;;;;;;23.69;100.00;95977.88;4993149;28;20203;-88
2021/06/05 08:46:00;;;;;;;2.97;1.90;;;;;;;22.85;100.00;96020.81;4993413;28;20259;-88
2021/06/05 08:48:27;;;;;;;2.27;1.70;;;;;;;22.85;100.00;96002.84;4993521;28;20699;-85
2021/06/05 08:51:09;;;;;;;2.27;2.07;;;;;;;22.35;100.00;96006.25;4997572;28;20672;-87
2021/06/05 08:53:40;;;;;;;4.13;2.17;;;;;;;22.17;100.00;95955.56;4993361;28;20192;-87
2021/06/05 08:56:13;;;;;;;3.30;2.60;;;;;;;22.66;100.00;95950.56;4992697;28;20704;-89
2021/06/05 08:58:44;;;;;;;6.60;2.47;;;;;;;22.91;100.00;95983.13;5007034;28;20242;-89
2021/06/05 09:01:25;;;;;;;6.73;2.53;;;;;;;23.23;100.00;96120.13;5013035;28;20207;-89
2021/06/05 09:03:57;;;;;;;4.20;2.50;;;;;;;22.87;100.00;96180.28;4993128;28;20196;-88
2021/06/05 09:06:33;;;;;;;2.57;2.37;;;;;;;22.29;100.00;96264.22;4993192;28;20214;-89
2021/06/05 09:09:02;;;;;;;4.07;2.73;;;;;;;22.11;100.00;96428.41;4993420;28;20676;-89
2021/06/05 09:11:29;;;;;;;3.37;3.07;;;;;;;21.69;100.00;96374.03;4993280;28;20211;-89
2021/06/05 09:13:56;;;;;;;3.77;2.60;;;;;;;21.44;100.00;96396.34;4992648;28;20196;-88
2021/06/05 09:16:34;;;;;;;6.50;4.07;;;;;;;21.32;100.00;96440.84;4992938;28;20199;-89
2021/06/05 09:19:14;;;;;;;5.97;2.47;;;;;;;21.18;100.00;96490.16;4993409;28;20637;-89
2021/06/05 09:21:47;;;;;;;4.83;2.73;;;;;;;21.14;100.00;96429.09;4992916;28;20637;-90
2021/06/05 09:24:25;;;;;;;34.20;25.90;;;;;;;21.11;100.00;96514.25;4996369;28;20259;-89
2021/06/05 09:27:07;;;;;;;177.73;133.87;;;;;;;21.17;100.00;96528.59;4997080;28;20266;-90
2021/06/05 09:29:55;;;;;;;21.23;16.50;;;;;;;21.25;100.00;96450.81;4996492;28;20235;-90
2021/06/05 09:32:24;;;;;;;43.47;33.80;;;;;;;21.25;100.00;96400.81;4996953;28;20216;-89
2021/06/05 09:34:53;;;;;;;34.90;25.90;;;;;;;20.97;100.00;96317.69;4996088;28;20705;-88
2021/06/05 09:37:37;;;;;;;28.60;20.53;;;;;;;20.94;100.00;96356.34;4996396;28;20204;-89
2021/06/05 09:40:25;;;;;;;3.97;3.57;;;;;;;20.92;100.00;96370.97;4996717;28;20589;-88
2021/06/05 09:42:55;;;;;;;4.27;3.00;;;;;;;20.65;100.00;96484.22;4996279;28;20200;-86
2021/06/05 09:45:33;;;;;;;3.50;2.90;;;;;;;20.45;100.00;96526.22;4995875;28;20250;-87
2021/06/05 09:48:20;;;;;;;3.27;2.27;;;;;;;20.38;100.00;96474.72;4995592;28;20184;-87
2021/06/05 09:50:48;;;;;;;3.30;2.30;;;;;;;20.37;100.00;96494.44;4996051;28;20200;-88
2021/06/05 09:53:19;;;;;;;2.63;2.33;;;;;;;20.33;100.00;96512.72;4996029;28;20201;-88
2021/06/05 09:55:47;;;;;;;5.07;3.37;;;;;;;20.42;100.00;96574.69;4996317;28;20279;-89
2021/06/05 09:58:37;;;;;;;3.73;2.93;;;;;;;20.73;100.00;96528.53;4995911;28;20250;-88
2021/06/05 10:01:21;;;;;;;2.80;2.60;;;;;;;21.26;100.00;96410.47;4996118;28;20242;-88
2021/06/05 10:03:50;;;;;;;4.00;2.40;;;;;;;21.44;100.00;96350.88;4995744;28;20184;-88
2021/06/05 10:06:34;;;;;;;4.90;2.80;;;;;;;22.29;100.00;96264.22;4995706;28;20212;-88
2021/06/05 10:09:18;;;;;;;3.43;2.53;;;;;;;22.53;100.00;96219.50;4995236;28;20228;-89
2021/06/05 10:11:46;;;;;;;2.30;2.10;;;;;;;22.21;100.00;96235.13;4995445;28;20275;-88
2021/06/05 10:14:16;;;;;;;4.53;2.23;;;;;;;21.83;100.00;96198.91;4995425;28;20343;-88
2021/06/05 10:16:48;;;;;;;4.10;2.40;;;;;;;22.12;100.00;96205.19;4995676;28;20195;-88
2021/06/05 10:19:20;;;;;;;2.73;2.30;;;;;;;22.37;100.00;96186.22;4995628;28;20188;-88
2021/06/05 10:21:48;;;;;;;4.30;3.50;;;;;;;22.50;100.00;96163.72;4995698;28;20192;-87
2021/06/05 10:24:24;;;;;;;3.17;2.97;;;;;;;22.58;100.00;96167.91;4995314;28;20668;-86
2021/06/05 10:26:53;;;;;;;2.37;2.17;;;;;;;22.31;100.00;96130.94;4995602;28;20198;-88
2021/06/05 10:29:25;;;;;;;3.93;2.60;;;;;;;22.19;100.00;96122.91;4995342;28;20685;-88
2021/06/05 10:31:54;;;;;;;3.13;2.93;;;;;;;22.25;100.00;96113.97;4995684;28;20254;-88
2021/06/05 10:34:31;;;;;;;3.77;3.03;;;;;;;22.00;100.00;96103.50;4994281;28;20270;-89
2021/06/05 10:36:58;;;;;;;4.50;2.60;;;;;;;21.90;100.00;96095.25;4995213;28;20542;-87
2021/06/05 10:39:35;;;;;;;10.83;3.27;;;;;;;21.99;100.00;96083.13;4994993;28;20231;-88
2021/06/05 10:42:05;;;;;;;2.67;2.47;;;;;;;22.06;100.00;96066.94;4995146;28;20271;-89
2021/06/05 10:44:35;;;;;;;3.00;2.70;;;;;;;22.11;100.00;96052.88;4995185;28;20265;-88
2021/06/05 10:47:10;;;;;;;3.67;2.77;;;;;;;22.59;100.00;96017.69;4995282;28;20204;-89
2021/06/05 10:49:42;;;;;;;4.57;2.70;;;;;;;23.10;100.00;95993.63;4995402;28;20204;-87
2021/06/05 10:52:17;;;;;;;3.07;2.77;;;;;;;23.54;100.00;95981.16;4994853;28;20255;-88
2021/06/05 10:54:51;;;;;;;6.77;3.07;;;;;;;23.96;100.00;95964.53;4994672;28;20314;-90
2021/06/05 10:57:38;;;;;;;2.67;2.47;;;;;;;23.81;100.00;95986.63;4995278;28;20744;-90
2021/06/05 11:00:26;;;;;;;3.60;2.43;;;;;;;24.29;100.00;95954.72;4995298;28;20621;-89
2021/06/05 11:02:54;;;;;;;3.07;2.80;;;;;;;24.10;100.00;95960.41;4994763;28;20207;-88
2021/06/05 11:05:45;;;;;;;4.90;2.80;;;;;;;23.76;100.00;95966.97;4994501;28;20232;-88
2021/06/05 11:08:44;;;;;;;4.63;2.70;;;;;;;24.20;100.00;95908.69;4995004;28;20185;-90
2021/06/05 11:11:44;;;;;;;3.10;2.90;;;;;;;24.41;100.00;95937.38;4952131;28;20196;-88
2021/06/05 11:14:48;;;;;;;4.43;2.40;;;;;;;24.51;100.00;95946.63;4995222;28;20199;-89
2021/06/05 11:17:38;;;;;;;2.13;1.93;;;;;;;23.44;100.00;95944.25;4994877;28;20192;-88
2021/06/05 11:20:35;;;;;;;2.73;2.53;;;;;;;23.04;100.00;95888.22;4994124;28;20211;-88
2021/06/05 11:23:17;;;;;;;3.20;2.90;;;;;;;22.86;100.00;95878.56;4994311;28;20188;-89
2021/06/05 11:25:47;;;;;;;2.10;2.00;;;;;;;22.82;100.00;95893.47;4994730;28;20192;-89
2021/06/05 11:28:48;;;;;;;4.20;2.80;;;;;;;23.05;100.00;95854.19;4994325;28;20200;-90
2021/06/05 11:31:51;;;;;;;3.30;3.00;;;;;;;22.61;100.00;95849.50;4993976;28;20208;-90
2021/06/05 11:34:54;;;;;;;2.93;2.70;;;;;;;22.54;100.00;95808.69;4994024;28;20235;-90
2021/06/05 11:37:53;;;;;;;5.43;2.60;;;;;;;22.77;100.00;95787.06;4994278;28;20194;-90
2021/06/05 11:41:03;;;;;;;4.17;2.93;;;;;;;23.21;100.00;95762.19;4994477;28;20291;-89
2021/06/05 11:43:43;;;;;;;3.13;2.40;;;;;;;23.33;100.00;95743.28;4994335;28;20192;-90
2021/06/05 11:46:14;;;;;;;2.60;2.40;;;;;;;22.85;100.00;95740.25;4994177;28;20248;-90
2021/06/05 11:48:54;;;;;;;2.50;2.30;;;;;;;22.73;100.00;95688.69;4994050;28;20279;-90